sensor_id;sensor_type;location;lat;lon;timestamp;pressure;altitude;pressure_sealevel;temperature;humidity
36380;BME280;22411;53.016;18.632;2023-09-07T00:01:32;101676.81;;;18.25;100.00
36380;BME280;22411;53.016;18.632;2023-09-07T00:03:58;101681.34;;;18.23;100.00
36380;BME280;22411;53.016;18.632;2023-09-07T00:06:24;101682.16;;;18.24;100.00
36380;BME280;22411;53.016;18.632;2023-09-07T00:08:50;101682.56;;;18.19;100.00
36380;BME280;22411;53.016;18.632;2023-09-07T00:11:15;101684.34;;;18.19;100.00
36380;BME280;22411;53.016;18.632;2023-09-07T00:13:41;101681.63;;;18.20;100.00
36380;BME280;22411;53.016;18.632;2023-09-07T00:16:07;101680.66;;;18.21;100.00
36380;BME280;22411;53.016;18.632;2023-09-07T00:18:34;101684.34;;;18.19;100.00
36380;BME280;22411;53.016;18.632;2023-09-07T00:21:00;101678.53;;;18.15;100.00
36380;BME280;22411;53.016;18.632;2023-09-07T00:23:26;101683.88;;;18.14;100.00
36380;BME280;22411;53.016;18.632;2023-09-07T00:25:52;101674.47;;;18.11;100.00
36380;BME280;22411;53.016;18.632;2023-09-07T00:28:18;101680.84;;;18.09;100.00
36380;BME280;22411;53.016;18.632;2023-09-07T00:30:43;101682.50;;;18.10;100.00
36380;BME280;22411;53.016;18.632;2023-09-07T00:33:10;101680.25;;;18.05;100.00
36380;BME280;22411;53.016;18.632;2023-09-07T00:35:36;101681.19;;;18.04;100.00
36380;BME280;22411;53.016;18.632;2023-09-07T00:38:02;101684.88;;;18.01;100.00
36380;BME280;22411;53.016;18.632;2023-09-07T00:40:29;101687.06;;;17.96;100.00
36380;BME280;22411;53.016;18.632;2023-09-07T00:42:55;101691.75;;;17.93;100.00
36380;BME280;22411;53.016;18.632;2023-09-07T00:45:21;101685.91;;;17.89;100.00
36380;BME280;22411;53.016;18.632;2023-09-07T00:47:47;101687.69;;;17.89;100.00
36380;BME280;22411;53.016;18.632;2023-09-07T00:50:13;101688.06;;;17.84;100.00
36380;BME280;22411;53.016;18.632;2023-09-07T00:52:43;101685.09;;;17.77;100.00
36380;BME280;22411;53.016;18.632;2023-09-07T00:55:09;101682.84;;;17.73;100.00
36380;BME280;22411;53.016;18.632;2023-09-07T00:57:35;101685.06;;;17.66;100.00
36380;BME280;22411;53.016;18.632;2023-09-07T01:00:05;101682.72;;;17.63;100.00
36380;BME280;22411;53.016;18.632;2023-09-07T01:02:32;101684.03;;;17.58;100.00
36380;BME280;22411;53.016;18.632;2023-09-07T01:04:58;101684.03;;;17.58;100.00
36380;BME280;22411;53.016;18.632;2023-09-07T01:07:26;101684.84;;;17.58;100.00
36380;BME280;22411;53.016;18.632;2023-09-07T01:09:56;101680.56;;;17.57;100.00
36380;BME280;22411;53.016;18.632;2023-09-07T01:12:23;101674.38;;;17.58;100.00
36380;BME280;22411;53.016;18.632;2023-09-07T01:14:48;101678.78;;;17.58;100.00
36380;BME280;22411;53.016;18.632;2023-09-07T01:17:14;101677.81;;;17.59;100.00
36380;BME280;22411;53.016;18.632;2023-09-07T01:19:41;101679.25;;;17.63;100.00
36380;BME280;22411;53.016;18.632;2023-09-07T01:22:08;101678.53;;;17.61;100.00
36380;BME280;22411;53.016;18.632;2023-09-07T01:24:37;101683.06;;;17.59;100.00
36380;BME280;22411;53.016;18.632;2023-09-07T01:27:03;101682.00;;;17.61;100.00
36380;BME280;22411;53.016;18.632;2023-09-07T01:29:30;101685.69;;;17.59;100.00
36380;BME280;22411;53.016;18.632;2023-09-07T01:31:57;101678.91;;;17.56;100.00
36380;BME280;22411;53.016;18.632;2023-09-07T01:34:23;101671.97;;;17.55;100.00
36380;BME280;22411;53.016;18.632;2023-09-07T01:36:49;101672.94;;;17.54;100.00
36380;BME280;22411;53.016;18.632;2023-09-07T01:39:15;101680.09;;;17.52;100.00
36380;BME280;22411;53.016;18.632;2023-09-07T01:41:42;101683.09;;;17.47;100.00
36380;BME280;22411;53.016;18.632;2023-09-07T01:44:08;101676.28;;;17.45;100.00
36380;BME280;22411;53.016;18.632;2023-09-07T01:46:34;101679.16;;;17.42;100.00
36380;BME280;22411;53.016;18.632;2023-09-07T01:49:01;101672.25;;;17.41;100.00
36380;BME280;22411;53.016;18.632;2023-09-07T01:51:27;101666.56;;;17.36;100.00
36380;BME280;22411;53.016;18.632;2023-09-07T01:53:54;101672.75;;;17.35;100.00
36380;BME280;22411;53.016;18.632;2023-09-07T01:56:20;101671.31;;;17.31;100.00
36380;BME280;22411;53.016;18.632;2023-09-07T01:58:46;101674.91;;;17.30;100.00
36380;BME280;22411;53.016;18.632;2023-09-07T02:01:27;101678.34;;;17.30;100.00
36380;BME280;22411;53.016;18.632;2023-09-07T02:03:55;101679.41;;;17.28;100.00
36380;BME280;22411;53.016;18.632;2023-09-07T02:06:21;101675.34;;;17.23;100.00
36380;BME280;22411;53.016;18.632;2023-09-07T02:08:47;101678.94;;;17.22;100.00
36380;BME280;22411;53.016;18.632;2023-09-07T02:11:12;101670.38;;;17.20;100.00
36380;BME280;22411;53.016;18.632;2023-09-07T02:13:41;101674.78;;;17.20;100.00
36380;BME280;22411;53.016;18.632;2023-09-07T02:16:07;101675.97;;;17.16;100.00
36380;BME280;22411;53.016;18.632;2023-09-07T02:18:33;101677.63;;;17.17;100.00
36380;BME280;22411;53.016;18.632;2023-09-07T02:21:02;101672.97;;;17.20;100.00
36380;BME280;22411;53.016;18.632;2023-09-07T02:23:31;101675.59;;;17.20;100.00
36380;BME280;22411;53.016;18.632;2023-09-07T02:25:57;101672.25;;;17.18;100.00
36380;BME280;22411;53.016;18.632;2023-09-07T02:28:24;101668.94;;;17.16;100.00
36380;BME280;22411;53.016;18.632;2023-09-07T02:30:49;101671.06;;;17.11;100.00
36380;BME280;22411;53.016;18.632;2023-09-07T02:33:15;101670.47;;;17.08;100.00
36380;BME280;22411;53.016;18.632;2023-09-07T02:35:40;101672.50;;;17.04;100.00
36380;BME280;22411;53.016;18.632;2023-09-07T02:38:06;101669.41;;;16.99;100.00
36380;BME280;22411;53.016;18.632;2023-09-07T02:40:32;101672.25;;;16.96;100.00
36380;BME280;22411;53.016;18.632;2023-09-07T02:42:58;101668.19;;;16.92;100.00
36380;BME280;22411;53.016;18.632;2023-09-07T02:45:23;101677.13;;;16.89;100.00
36380;BME280;22411;53.016;18.632;2023-09-07T02:47:49;101667.63;;;16.88;100.00
36380;BME280;22411;53.016;18.632;2023-09-07T02:50:16;101676.44;;;16.87;100.00
36380;BME280;22411;53.016;18.632;2023-09-07T02:52:43;101674.03;;;16.84;100.00
36380;BME280;22411;53.016;18.632;2023-09-07T02:55:08;101677.84;;;16.80;100.00
36380;BME280;22411;53.016;18.632;2023-09-07T02:57:35;101680.91;;;16.74;100.00
36380;BME280;22411;53.016;18.632;2023-09-07T03:00:00;101678.44;;;16.72;100.00
36380;BME280;22411;53.016;18.632;2023-09-07T03:02:27;101675.91;;;16.71;100.00
36380;BME280;22411;53.016;18.632;2023-09-07T03:04:56;101673.50;;;16.68;100.00
36380;BME280;22411;53.016;18.632;2023-09-07T03:07:24;101683.25;;;16.66;100.00
36380;BME280;22411;53.016;18.632;2023-09-07T03:09:52;101685.28;;;16.62;100.00
36380;BME280;22411;53.016;18.632;2023-09-07T03:12:18;101679.56;;;16.57;100.00
36380;BME280;22411;53.016;18.632;2023-09-07T03:14:43;101681.44;;;16.55;100.00
36380;BME280;22411;53.016;18.632;2023-09-07T03:17:10;101678.94;;;16.54;100.00
36380;BME280;22411;53.016;18.632;2023-09-07T03:19:36;101674.16;;;16.47;100.00
36380;BME280;22411;53.016;18.632;2023-09-07T03:22:03;101672.97;;;16.40;100.00
36380;BME280;22411;53.016;18.632;2023-09-07T03:24:29;101677.47;;;16.38;100.00
36380;BME280;22411;53.016;18.632;2023-09-07T03:26:54;101674.13;;;16.36;100.00
36380;BME280;22411;53.016;18.632;2023-09-07T03:29:20;101676.25;;;16.31;100.00
36380;BME280;22411;53.016;18.632;2023-09-07T03:31:46;101677.09;;;16.32;100.00
36380;BME280;22411;53.016;18.632;2023-09-07T03:34:11;101680.66;;;16.31;100.00
36380;BME280;22411;53.016;18.632;2023-09-07T03:36:37;101668.63;;;16.28;100.00
36380;BME280;22411;53.016;18.632;2023-09-07T03:39:03;101680.03;;;16.27;100.00
36380;BME280;22411;53.016;18.632;2023-09-07T03:41:29;101684.44;;;16.27;100.00
36380;BME280;22411;53.016;18.632;2023-09-07T03:43:57;101680.28;;;16.24;100.00
36380;BME280;22411;53.016;18.632;2023-09-07T03:46:23;101686.56;;;16.21;100.00
36380;BME280;22411;53.016;18.632;2023-09-07T03:48:48;101682.28;;;16.20;100.00
36380;BME280;22411;53.016;18.632;2023-09-07T03:51:14;101683.31;;;16.18;100.00
36380;BME280;22411;53.016;18.632;2023-09-07T03:53:40;101677.59;;;16.13;100.00
36380;BME280;22411;53.016;18.632;2023-09-07T03:56:05;101682.94;;;16.11;100.00
36380;BME280;22411;53.016;18.632;2023-09-07T03:58:31;101691.75;;;16.10;100.00
36380;BME280;22411;53.016;18.632;2023-09-07T04:00:59;101690.91;;;16.10;100.00
36380;BME280;22411;53.016;18.632;2023-09-07T04:03:25;101695.31;;;16.09;100.00
36380;BME280;22411;53.016;18.632;2023-09-07T04:05:51;101697.09;;;16.09;100.00
36380;BME280;22411;53.016;18.632;2023-09-07T04:08:16;101700.88;;;16.05;100.00
36380;BME280;22411;53.016;18.632;2023-09-07T04:10:42;101693.34;;;16.00;100.00
36380;BME280;22411;53.016;18.632;2023-09-07T04:13:08;101701.41;;;15.97;100.00
36380;BME280;22411;53.016;18.632;2023-09-07T04:15:41;101699.88;;;15.94;100.00
36380;BME280;22411;53.016;18.632;2023-09-07T04:18:07;101697.25;;;15.94;100.00
36380;BME280;22411;53.016;18.632;2023-09-07T04:20:33;101703.19;;;15.97;100.00
36380;BME280;22411;53.016;18.632;2023-09-07T04:22:59;101702.38;;;15.96;100.00
36380;BME280;22411;53.016;18.632;2023-09-07T04:25:25;101704.16;;;15.95;100.00
36380;BME280;22411;53.016;18.632;2023-09-07T04:27:51;101703.31;;;15.95;100.00
36380;BME280;22411;53.016;18.632;2023-09-07T04:30:17;101703.44;;;15.93;100.00
36380;BME280;22411;53.016;18.632;2023-09-07T04:32:42;101695.69;;;15.92;100.00
36380;BME280;22411;53.016;18.632;2023-09-07T04:35:08;101703.53;;;15.92;100.00
36380;BME280;22411;53.016;18.632;2023-09-07T04:37:34;101704.25;;;15.94;100.00
36380;BME280;22411;53.016;18.632;2023-09-07T04:40:00;101709.50;;;15.94;100.00
36380;BME280;22411;53.016;18.632;2023-09-07T04:42:25;101701.41;;;15.97;100.00
36380;BME280;22411;53.016;18.632;2023-09-07T04:44:51;101709.03;;;16.00;100.00
36380;BME280;22411;53.016;18.632;2023-09-07T04:47:17;101711.66;;;16.00;100.00
36380;BME280;22411;53.016;18.632;2023-09-07T04:49:48;101710.00;;;15.99;100.00
36380;BME280;22411;53.016;18.632;2023-09-07T04:52:14;101717.72;;;16.01;100.00
36380;BME280;22411;53.016;18.632;2023-09-07T04:54:40;101718.69;;;16.00;100.00
36380;BME280;22411;53.016;18.632;2023-09-07T04:57:05;101723.66;;;16.03;100.00
36380;BME280;22411;53.016;18.632;2023-09-07T04:59:31;101721.06;;;16.03;100.00
36380;BME280;22411;53.016;18.632;2023-09-07T05:01:59;101721.06;;;16.03;100.00
36380;BME280;22411;53.016;18.632;2023-09-07T05:04:26;101719.81;;;16.08;100.00
36380;BME280;22411;53.016;18.632;2023-09-07T05:06:51;101718.94;;;16.08;100.00
36380;BME280;22411;53.016;18.632;2023-09-07T05:09:17;101726.69;;;16.09;100.00
36380;BME280;22411;53.016;18.632;2023-09-07T05:11:43;101727.53;;;16.10;100.00
36380;BME280;22411;53.016;18.632;2023-09-07T05:14:09;101724.09;;;16.09;100.00
36380;BME280;22411;53.016;18.632;2023-09-07T05:16:34;101723.97;;;16.11;100.00
36380;BME280;22411;53.016;18.632;2023-09-07T05:19:00;101732.50;;;16.13;100.00
36380;BME280;22411;53.016;18.632;2023-09-07T05:21:26;101727.78;;;16.18;100.00
36380;BME280;22411;53.016;18.632;2023-09-07T05:23:52;101727.56;;;16.21;100.00
36380;BME280;22411;53.016;18.632;2023-09-07T05:26:21;101732.47;;;16.26;100.00
36380;BME280;22411;53.016;18.632;2023-09-07T05:28:48;101729.88;;;16.26;100.00
36380;BME280;22411;53.016;18.632;2023-09-07T05:31:13;101736.63;;;16.28;100.00
36380;BME280;22411;53.016;18.632;2023-09-07T05:33:39;101731.19;;;16.31;100.00
36380;BME280;22411;53.016;18.632;2023-09-07T05:36:05;101741.09;;;16.39;100.00
36380;BME280;22411;53.016;18.632;2023-09-07T05:38:30;101735.50;;;16.43;100.00
36380;BME280;22411;53.016;18.632;2023-09-07T05:40:56;101742.31;;;16.46;100.00
36380;BME280;22411;53.016;18.632;2023-09-07T05:43:22;101745.94;;;16.56;100.00
36380;BME280;22411;53.016;18.632;2023-09-07T05:45:47;101747.97;;;16.64;100.00
36380;BME280;22411;53.016;18.632;2023-09-07T05:48:13;101735.38;;;16.69;100.00
36380;BME280;22411;53.016;18.632;2023-09-07T05:50:42;101741.00;;;16.76;100.00
36380;BME280;22411;53.016;18.632;2023-09-07T05:53:08;101743.06;;;16.83;100.00
36380;BME280;22411;53.016;18.632;2023-09-07T05:55:33;101743.44;;;16.90;100.00
36380;BME280;22411;53.016;18.632;2023-09-07T05:57:59;101744.97;;;16.92;100.00
36380;BME280;22411;53.016;18.632;2023-09-07T06:00:25;101745.44;;;16.97;100.00
36380;BME280;22411;53.016;18.632;2023-09-07T06:02:51;101748.22;;;17.07;100.00
36380;BME280;22411;53.016;18.632;2023-09-07T06:05:17;101747.66;;;17.15;100.00
36380;BME280;22411;53.016;18.632;2023-09-07T06:07:44;101752.16;;;17.24;100.00
36380;BME280;22411;53.016;18.632;2023-09-07T06:10:10;101761.09;;;17.33;100.00
36380;BME280;22411;53.016;18.632;2023-09-07T06:12:36;101754.06;;;17.44;100.00
36380;BME280;22411;53.016;18.632;2023-09-07T06:15:02;101755.84;;;17.55;100.00
36380;BME280;22411;53.016;18.632;2023-09-07T06:17:29;101760.25;;;17.66;100.00
36380;BME280;22411;53.016;18.632;2023-09-07T06:19:55;101760.41;;;17.75;100.00
36380;BME280;22411;53.016;18.632;2023-09-07T06:22:21;101762.78;;;17.90;100.00
36380;BME280;22411;53.016;18.632;2023-09-07T06:24:47;101770.25;;;18.06;100.00
36380;BME280;22411;53.016;18.632;2023-09-07T06:27:13;101774.50;;;18.18;100.00
36380;BME280;22411;53.016;18.632;2023-09-07T06:29:38;101774.88;;;18.24;100.00
36380;BME280;22411;53.016;18.632;2023-09-07T06:32:04;101775.91;;;18.33;100.00
36380;BME280;22411;53.016;18.632;2023-09-07T06:34:30;101778.03;;;18.39;100.00
36380;BME280;22411;53.016;18.632;2023-09-07T06:36:56;101785.00;;;18.50;100.00
36380;BME280;22411;53.016;18.632;2023-09-07T06:39:21;101793.25;;;18.57;100.00
36380;BME280;22411;53.016;18.632;2023-09-07T06:41:48;101792.84;;;18.61;100.00
36380;BME280;22411;53.016;18.632;2023-09-07T06:44:13;101789.84;;;18.66;100.00
36380;BME280;22411;53.016;18.632;2023-09-07T06:46:40;101792.59;;;18.75;100.00
36380;BME280;22411;53.016;18.632;2023-09-07T06:49:05;101789.78;;;18.88;100.00
36380;BME280;22411;53.016;18.632;2023-09-07T06:51:32;101796.31;;;18.94;100.00
36380;BME280;22411;53.016;18.632;2023-09-07T06:53:58;101793.88;;;19.02;100.00
36380;BME280;22411;53.016;18.632;2023-09-07T06:56:24;101797.91;;;19.06;100.00
36380;BME280;22411;53.016;18.632;2023-09-07T06:58:49;101791.56;;;19.08;100.00
36380;BME280;22411;53.016;18.632;2023-09-07T07:01:15;101800.84;;;19.13;100.00
36380;BME280;22411;53.016;18.632;2023-09-07T07:03:41;101808.72;;;19.33;100.00
36380;BME280;22411;53.016;18.632;2023-09-07T07:06:07;101804.25;;;19.55;100.00
36380;BME280;22411;53.016;18.632;2023-09-07T07:08:32;101806.41;;;19.71;100.00
36380;BME280;22411;53.016;18.632;2023-09-07T07:10:58;101805.19;;;19.75;100.00
36380;BME280;22411;53.016;18.632;2023-09-07T07:13:24;101806.31;;;19.72;100.00
36380;BME280;22411;53.016;18.632;2023-09-07T07:15:50;101800.19;;;19.72;100.00
36380;BME280;22411;53.016;18.632;2023-09-07T07:18:15;101807.38;;;19.70;100.00
36380;BME280;22411;53.016;18.632;2023-09-07T07:20:42;101808.94;;;19.72;100.00
36380;BME280;22411;53.016;18.632;2023-09-07T07:23:11;101800.22;;;19.81;100.00
36380;BME280;22411;53.016;18.632;2023-09-07T07:25:40;101807.47;;;19.89;100.00
36380;BME280;22411;53.016;18.632;2023-09-07T07:28:06;101807.59;;;19.97;100.00
36380;BME280;22411;53.016;18.632;2023-09-07T07:30:37;101809.44;;;20.06;100.00
36380;BME280;22411;53.016;18.632;2023-09-07T07:33:03;101805.84;;;20.17;100.00
36380;BME280;22411;53.016;18.632;2023-09-07T07:35:30;101810.56;;;20.23;100.00
36380;BME280;22411;53.016;18.632;2023-09-07T07:37:56;101809.19;;;20.29;100.00
36380;BME280;22411;53.016;18.632;2023-09-07T07:40:22;101804.66;;;20.41;100.00
36380;BME280;22411;53.016;18.632;2023-09-07T07:42:48;101816.19;;;20.59;100.00
36380;BME280;22411;53.016;18.632;2023-09-07T07:45:14;101812.72;;;20.68;100.00
36380;BME280;22411;53.016;18.632;2023-09-07T07:47:41;101819.25;;;20.83;100.00
36380;BME280;22411;53.016;18.632;2023-09-07T07:50:07;101822.25;;;20.98;100.00
36380;BME280;22411;53.016;18.632;2023-09-07T07:52:32;101823.47;;;21.13;100.00
36380;BME280;22411;53.016;18.632;2023-09-07T07:54:59;101824.03;;;21.27;100.00
36380;BME280;22411;53.016;18.632;2023-09-07T07:57:25;101822.22;;;21.37;100.00
36380;BME280;22411;53.016;18.632;2023-09-07T07:59:51;101818.56;;;21.48;100.00
36380;BME280;22411;53.016;18.632;2023-09-07T08:02:16;101821.41;;;21.64;100.00
36380;BME280;22411;53.016;18.632;2023-09-07T08:04:42;101813.59;;;21.72;100.00
36380;BME280;22411;53.016;18.632;2023-09-07T08:07:07;101814.84;;;21.78;100.00
36380;BME280;22411;53.016;18.632;2023-09-07T08:09:34;101819.63;;;21.92;100.00
36380;BME280;22411;53.016;18.632;2023-09-07T08:12:00;101825.50;;;22.04;100.00
36380;BME280;22411;53.016;18.632;2023-09-07T08:14:28;101826.63;;;22.11;100.00
36380;BME280;22411;53.016;18.632;2023-09-07T08:16:54;101825.59;;;22.22;100.00
36380;BME280;22411;53.016;18.632;2023-09-07T08:19:20;101825.81;;;22.28;100.00
36380;BME280;22411;53.016;18.632;2023-09-07T08:21:46;101826.88;;;22.35;100.00
36380;BME280;22411;53.016;18.632;2023-09-07T08:24:12;101827.28;;;22.58;100.00
36380;BME280;22411;53.016;18.632;2023-09-07T08:26:37;101830.06;;;22.75;100.00
36380;BME280;22411;53.016;18.632;2023-09-07T08:29:04;101827.28;;;22.94;100.00
36380;BME280;22411;53.016;18.632;2023-09-07T08:31:37;101838.34;;;23.15;100.00
36380;BME280;22411;53.016;18.632;2023-09-07T08:34:07;101836.63;;;23.32;100.00
36380;BME280;22411;53.016;18.632;2023-09-07T08:36:36;101830.75;;;23.46;100.00
36380;BME280;22411;53.016;18.632;2023-09-07T08:39:03;101831.31;;;23.58;100.00
36380;BME280;22411;53.016;18.632;2023-09-07T08:41:44;101828.75;;;23.74;100.00
36380;BME280;22411;53.016;18.632;2023-09-07T08:44:11;101834.28;;;23.97;100.00
36380;BME280;22411;53.016;18.632;2023-09-07T08:46:37;101829.69;;;24.08;100.00
36380;BME280;22411;53.016;18.632;2023-09-07T08:49:04;101835.50;;;24.19;100.00
36380;BME280;22411;53.016;18.632;2023-09-07T08:51:30;101838.00;;;24.21;100.00
36380;BME280;22411;53.016;18.632;2023-09-07T08:53:57;101838.66;;;24.23;100.00
36380;BME280;22411;53.016;18.632;2023-09-07T08:56:24;101833.22;;;24.33;100.00
36380;BME280;22411;53.016;18.632;2023-09-07T08:58:50;101836.75;;;24.49;100.00
36380;BME280;22411;53.016;18.632;2023-09-07T09:01:16;101832.47;;;24.81;100.00
36380;BME280;22411;53.016;18.632;2023-09-07T09:03:43;101829.16;;;25.12;100.00
36380;BME280;22411;53.016;18.632;2023-09-07T09:06:10;101829.41;;;25.41;100.00
36380;BME280;22411;53.016;18.632;2023-09-07T09:08:43;101831.72;;;25.52;100.00
36380;BME280;22411;53.016;18.632;2023-09-07T09:11:09;101836.66;;;25.55;100.00
36380;BME280;22411;53.016;18.632;2023-09-07T09:13:36;101837.66;;;25.63;100.00
36380;BME280;22411;53.016;18.632;2023-09-07T09:16:02;101832.81;;;25.74;100.00
36380;BME280;22411;53.016;18.632;2023-09-07T09:18:28;101836.53;;;25.96;100.00
36380;BME280;22411;53.016;18.632;2023-09-07T09:20:55;101829.00;;;26.31;100.00
36380;BME280;22411;53.016;18.632;2023-09-07T09:23:21;101830.38;;;26.73;100.00
36380;BME280;22411;53.016;18.632;2023-09-07T09:25:50;101831.91;;;27.05;100.00
36380;BME280;22411;53.016;18.632;2023-09-07T09:28:17;101837.19;;;27.13;100.00
36380;BME280;22411;53.016;18.632;2023-09-07T09:30:42;101835.09;;;27.23;100.00
36380;BME280;22411;53.016;18.632;2023-09-07T09:33:11;101829.78;;;27.23;100.00
36380;BME280;22411;53.016;18.632;2023-09-07T09:35:37;101835.94;;;27.39;100.00
36380;BME280;22411;53.016;18.632;2023-09-07T09:38:04;101830.97;;;27.50;100.00
36380;BME280;22411;53.016;18.632;2023-09-07T09:40:31;101833.72;;;27.57;100.00
36380;BME280;22411;53.016;18.632;2023-09-07T09:42:57;101827.28;;;27.81;100.00
36380;BME280;22411;53.016;18.632;2023-09-07T09:45:23;101830.63;;;28.04;100.00
36380;BME280;22411;53.016;18.632;2023-09-07T09:47:50;101822.81;;;28.03;100.00
36380;BME280;22411;53.016;18.632;2023-09-07T09:50:16;101830.81;;;28.03;100.00
36380;BME280;22411;53.016;18.632;2023-09-07T09:52:42;101823.88;;;28.23;100.00
36380;BME280;22411;53.016;18.632;2023-09-07T09:55:08;101818.56;;;28.45;100.00
36380;BME280;22411;53.016;18.632;2023-09-07T09:57:38;101829.78;;;28.61;98.10
36380;BME280;22411;53.016;18.632;2023-09-07T10:00:05;101822.31;;;28.78;97.92
36380;BME280;22411;53.016;18.632;2023-09-07T10:02:49;101821.63;;;28.91;95.02
36380;BME280;22411;53.016;18.632;2023-09-07T10:05:17;101820.69;;;29.05;93.21
36380;BME280;22411;53.016;18.632;2023-09-07T10:07:45;101822.63;;;29.11;90.17
36380;BME280;22411;53.016;18.632;2023-09-07T10:10:12;101819.41;;;29.23;86.08
36380;BME280;22411;53.016;18.632;2023-09-07T10:12:50;101821.72;;;29.32;85.08
36380;BME280;22411;53.016;18.632;2023-09-07T10:15:23;101820.97;;;29.52;87.75
36380;BME280;22411;53.016;18.632;2023-09-07T10:17:50;101823.41;;;29.81;84.37
36380;BME280;22411;53.016;18.632;2023-09-07T10:20:19;101821.34;;;29.83;80.04
36380;BME280;22411;53.016;18.632;2023-09-07T10:22:48;101818.28;;;30.00;76.77
36380;BME280;22411;53.016;18.632;2023-09-07T10:25:21;101812.22;;;30.19;68.51
36380;BME280;22411;53.016;18.632;2023-09-07T10:27:48;101817.78;;;30.31;69.44
36380;BME280;22411;53.016;18.632;2023-09-07T10:30:14;101818.41;;;30.46;65.06
36380;BME280;22411;53.016;18.632;2023-09-07T10:32:45;101815.34;;;30.56;59.96
36380;BME280;22411;53.016;18.632;2023-09-07T10:35:15;101821.94;;;30.53;63.99
36380;BME280;22411;53.016;18.632;2023-09-07T10:37:45;101814.13;;;30.71;63.81
36380;BME280;22411;53.016;18.632;2023-09-07T10:40:12;101820.69;;;30.89;61.32
36380;BME280;22411;53.016;18.632;2023-09-07T10:42:44;101820.22;;;31.18;56.61
36380;BME280;22411;53.016;18.632;2023-09-07T10:45:13;101827.63;;;31.23;55.61
36380;BME280;22411;53.016;18.632;2023-09-07T10:47:42;101823.31;;;31.35;56.15
36380;BME280;22411;53.016;18.632;2023-09-07T10:50:12;101819.97;;;31.46;53.38
36380;BME280;22411;53.016;18.632;2023-09-07T10:52:40;101818.75;;;31.36;54.57
36380;BME280;22411;53.016;18.632;2023-09-07T10:55:10;101820.59;;;31.42;54.74
36380;BME280;22411;53.016;18.632;2023-09-07T10:57:44;101816.88;;;31.49;54.36
36380;BME280;22411;53.016;18.632;2023-09-07T11:00:11;101815.94;;;31.75;51.56
36380;BME280;22411;53.016;18.632;2023-09-07T11:02:38;101823.00;;;32.08;50.34
36380;BME280;22411;53.016;18.632;2023-09-07T11:05:04;101821.00;;;32.28;46.66
36380;BME280;22411;53.016;18.632;2023-09-07T11:07:30;101814.75;;;32.41;47.82
36380;BME280;22411;53.016;18.632;2023-09-07T11:09:56;101812.88;;;32.67;47.52
36380;BME280;22411;53.016;18.632;2023-09-07T11:12:21;101809.59;;;32.65;47.76
36380;BME280;22411;53.016;18.632;2023-09-07T11:14:47;101809.25;;;32.79;45.04
36380;BME280;22411;53.016;18.632;2023-09-07T11:17:13;101809.47;;;32.78;44.52
36380;BME280;22411;53.016;18.632;2023-09-07T11:19:41;101805.69;;;32.86;43.91
36380;BME280;22411;53.016;18.632;2023-09-07T11:22:09;101808.94;;;32.94;42.92
36380;BME280;22411;53.016;18.632;2023-09-07T11:24:35;101795.16;;;33.09;43.66
36380;BME280;22411;53.016;18.632;2023-09-07T11:27:01;101793.63;;;33.31;42.79
36380;BME280;22411;53.016;18.632;2023-09-07T11:29:31;101803.88;;;33.60;42.24
36380;BME280;22411;53.016;18.632;2023-09-07T11:32:10;101805.31;;;33.74;41.58
36380;BME280;22411;53.016;18.632;2023-09-07T11:34:46;101798.47;;;33.90;40.95
36380;BME280;22411;53.016;18.632;2023-09-07T11:37:14;101799.91;;;33.92;41.48
36380;BME280;22411;53.016;18.632;2023-09-07T11:39:39;101799.31;;;33.90;40.92
36380;BME280;22411;53.016;18.632;2023-09-07T11:42:05;101806.03;;;33.99;40.34
36380;BME280;22411;53.016;18.632;2023-09-07T11:44:30;101802.56;;;34.11;38.78
36380;BME280;22411;53.016;18.632;2023-09-07T11:46:56;101795.22;;;34.29;38.49
36380;BME280;22411;53.016;18.632;2023-09-07T11:49:22;101787.97;;;34.42;38.77
36380;BME280;22411;53.016;18.632;2023-09-07T11:51:48;101792.81;;;34.63;38.20
36380;BME280;22411;53.016;18.632;2023-09-07T11:54:14;101791.91;;;34.81;37.51
36380;BME280;22411;53.016;18.632;2023-09-07T11:56:40;101794.47;;;34.99;36.85
36380;BME280;22411;53.016;18.632;2023-09-07T11:59:08;101787.16;;;35.11;36.74
36380;BME280;22411;53.016;18.632;2023-09-07T12:01:35;101796.78;;;35.19;36.30
36380;BME280;22411;53.016;18.632;2023-09-07T12:04:00;101789.03;;;35.23;35.39
36380;BME280;22411;53.016;18.632;2023-09-07T12:06:26;101791.88;;;35.04;35.43
36380;BME280;22411;53.016;18.632;2023-09-07T12:09:05;101783.34;;;34.96;35.42
36380;BME280;22411;53.016;18.632;2023-09-07T12:11:33;101787.66;;;35.08;35.92
36380;BME280;22411;53.016;18.632;2023-09-07T12:13:59;101784.69;;;35.22;35.62
36380;BME280;22411;53.016;18.632;2023-09-07T12:16:25;101781.72;;;35.47;35.38
36380;BME280;22411;53.016;18.632;2023-09-07T12:18:51;101788.38;;;35.56;34.18
36380;BME280;22411;53.016;18.632;2023-09-07T12:21:17;101783.06;;;35.61;34.98
36380;BME280;22411;53.016;18.632;2023-09-07T12:23:43;101776.56;;;35.74;34.59
36380;BME280;22411;53.016;18.632;2023-09-07T12:26:09;101787.97;;;35.93;34.63
36380;BME280;22411;53.016;18.632;2023-09-07T12:28:34;101788.34;;;36.13;33.88
36380;BME280;22411;53.016;18.632;2023-09-07T12:31:00;101782.59;;;36.26;33.64